createdAt,value
2019-06-20T00:00:22.576Z,769.12
2019-06-20T00:01:22.552Z,769.09
2019-06-20T00:02:22.559Z,769.13
2019-06-20T00:03:22.595Z,769.11
2019-06-20T00:04:22.570Z,769.08
2019-06-20T00:05:22.536Z,769.10
2019-06-20T00:06:22.494Z,769.06
2019-06-20T00:07:22.507Z,769.10
2019-06-20T00:08:22.508Z,769.13
2019-06-20T00:09:22.466Z,769.13
2019-06-20T00:10:22.475Z,769.18
2019-06-20T00:11:22.439Z,769.21
2019-06-20T00:12:22.981Z,769.24
2019-06-20T00:13:22.437Z,769.29
2019-06-20T00:14:22.435Z,769.31
2019-06-20T00:15:22.406Z,769.30
2019-06-20T00:16:22.378Z,769.29
2019-06-20T00:17:22.370Z,769.29
2019-06-20T00:18:22.373Z,769.33
2019-06-20T00:19:22.352Z,769.34
2019-06-20T00:20:22.335Z,769.39
2019-06-20T00:21:22.381Z,769.39
2019-06-20T00:22:22.316Z,769.41
2019-06-20T00:23:22.349Z,769.42
2019-06-20T00:24:22.324Z,769.43
2019-06-20T00:25:22.298Z,769.44
2019-06-20T00:26:22.297Z,769.42
2019-06-20T00:27:22.273Z,769.44
2019-06-20T00:28:22.299Z,769.44
2019-06-20T00:29:22.282Z,769.50
2019-06-20T00:30:22.236Z,769.52
2019-06-20T00:31:22.227Z,769.52
2019-06-20T00:32:22.203Z,769.51
2019-06-20T00:33:22.197Z,769.51
2019-06-20T00:34:22.244Z,769.52
2019-06-20T00:35:22.192Z,769.54
2019-06-20T00:36:22.161Z,769.55
2019-06-20T00:37:22.150Z,769.56
2019-06-20T00:38:22.196Z,769.59
2019-06-20T00:39:22.135Z,769.61
2019-06-20T00:40:22.136Z,769.59
2019-06-20T00:41:22.099Z,769.59
2019-06-20T00:42:22.111Z,769.60
2019-06-20T00:43:22.081Z,769.63
2019-06-20T00:44:22.113Z,769.67
2019-06-20T00:45:22.069Z,769.69
2019-06-20T00:46:22.060Z,769.68
2019-06-20T00:47:22.022Z,769.66
2019-06-20T00:48:22.031Z,769.67
2019-06-20T00:49:22.043Z,769.68
2019-06-20T00:50:22.043Z,769.71
2019-06-20T00:51:21.996Z,769.76
2019-06-20T00:52:22.016Z,769.81
2019-06-20T00:53:22.000Z,769.82
2019-06-20T00:54:21.985Z,769.85
2019-06-20T00:55:21.941Z,769.82
2019-06-20T00:56:21.976Z,769.81
2019-06-20T00:57:21.948Z,769.74
2019-06-20T00:58:21.938Z,769.81
2019-06-20T00:59:21.965Z,769.79
2019-06-20T01:00:21.917Z,769.84
2019-06-20T01:01:21.898Z,769.86
2019-06-20T01:03:31.126Z,770.06
2019-06-20T01:04:32.080Z,769.97
2019-06-20T01:05:32.053Z,770.00
2019-06-20T01:06:32.073Z,770.05
2019-06-20T01:07:32.072Z,770.07
2019-06-20T01:08:32.018Z,770.08
2019-06-20T01:09:32.053Z,770.04
2019-06-20T01:10:32.033Z,770.02
2019-06-20T01:11:32.000Z,770.01
2019-06-20T01:12:31.982Z,770.02
2019-06-20T01:13:34.130Z,770.02
2019-06-20T01:14:31.983Z,770.06
2019-06-20T01:15:31.950Z,770.05
2019-06-20T01:16:31.981Z,770.05
2019-06-20T01:17:31.924Z,770.06
2019-06-20T01:18:31.920Z,770.08
2019-06-20T01:19:31.935Z,770.09
2019-06-20T01:20:31.890Z,770.09
2019-06-20T01:21:31.913Z,770.10
2019-06-20T01:22:31.873Z,770.09
2019-06-20T01:23:31.889Z,770.09
2019-06-20T01:24:31.865Z,770.09
2019-06-20T01:25:31.836Z,770.10
2019-06-20T01:26:31.826Z,770.08
2019-06-20T01:27:31.834Z,770.13
2019-06-20T01:28:31.850Z,770.17
2019-06-20T01:29:31.813Z,770.18
2019-06-20T01:30:31.791Z,770.24
2019-06-20T01:31:31.792Z,770.27
2019-06-20T01:32:31.760Z,770.26
2019-06-20T01:33:31.823Z,770.30
2019-06-20T01:34:31.735Z,770.31
2019-06-20T01:35:31.724Z,770.33
2019-06-20T01:36:31.866Z,770.40
2019-06-20T01:37:31.717Z,770.37
2019-06-20T01:38:31.749Z,770.37
2019-06-20T01:39:31.732Z,770.33
2019-06-20T01:40:31.668Z,770.37
2019-06-20T01:41:31.653Z,770.38
2019-06-20T01:42:31.721Z,770.37
2019-06-20T01:43:31.666Z,770.42
2019-06-20T01:44:31.633Z,770.45
2019-06-20T01:45:31.613Z,770.51
2019-06-20T01:46:31.624Z,770.57
2019-06-20T01:47:31.596Z,770.60
2019-06-20T01:48:31.604Z,770.56
2019-06-20T01:49:31.640Z,770.61
2019-06-20T01:50:31.561Z,770.63
2019-06-20T01:51:31.540Z,770.66
2019-06-20T01:52:31.556Z,770.68
2019-06-20T01:53:31.552Z,770.69
2019-06-20T01:54:31.565Z,770.71
2019-06-20T01:55:31.525Z,770.68
2019-06-20T01:56:31.515Z,770.64
2019-06-20T01:57:31.501Z,770.62
2019-06-20T01:58:31.527Z,770.62
2019-06-20T01:59:31.462Z,770.61
2019-06-20T02:00:31.483Z,770.56
2019-06-20T02:01:31.462Z,770.51
2019-06-20T02:02:31.441Z,770.49
2019-06-20T02:03:31.468Z,770.49
2019-06-20T02:04:31.404Z,770.49
2019-06-20T02:05:31.391Z,770.50
2019-06-20T02:06:31.408Z,770.53
2019-06-20T02:07:31.398Z,770.50
2019-06-20T02:08:31.417Z,770.50
2019-06-20T02:09:31.361Z,770.51
2019-06-20T02:10:31.365Z,770.47
2019-06-20T02:11:31.327Z,770.49
2019-06-20T02:12:31.324Z,770.54
2019-06-20T02:13:31.341Z,770.54
2019-06-20T02:14:31.314Z,770.52
2019-06-20T02:15:31.275Z,770.47
2019-06-20T02:16:31.297Z,770.48
2019-06-20T02:17:31.281Z,770.46
2019-06-20T02:18:31.312Z,770.54
2019-06-20T02:19:31.256Z,770.55
2019-06-20T02:20:31.244Z,770.56
2019-06-20T02:21:31.299Z,770.54
2019-06-20T02:22:31.206Z,770.57
2019-06-20T02:23:31.269Z,770.55
2019-06-20T02:24:31.187Z,770.50
2019-06-20T02:25:31.179Z,770.50
2019-06-20T02:26:31.164Z,770.49
2019-06-20T02:27:31.166Z,770.50
2019-06-20T02:28:31.180Z,770.49
2019-06-20T02:29:31.125Z,770.46
2019-06-20T02:30:31.125Z,770.46
2019-06-20T02:31:31.125Z,770.42
2019-06-20T02:32:31.133Z,770.42
2019-06-20T02:33:31.180Z,770.43
2019-06-20T02:34:31.100Z,770.46
2019-06-20T02:35:31.143Z,770.47
2019-06-20T02:36:31.052Z,770.46
2019-06-20T02:37:31.047Z,770.48
2019-06-20T02:38:31.038Z,770.48
2019-06-20T02:39:31.132Z,770.52
2019-06-20T02:40:31.028Z,770.52
2019-06-20T02:41:31.000Z,770.50
2019-06-20T02:42:31.009Z,770.51
2019-06-20T02:43:31.012Z,770.50
2019-06-20T02:44:31.221Z,770.48
2019-06-20T02:45:31.002Z,770.54
2019-06-20T02:46:30.952Z,770.52
2019-06-20T02:47:30.988Z,770.51
2019-06-20T02:48:30.965Z,770.47
2019-06-20T02:49:30.932Z,770.50
2019-06-20T02:50:30.901Z,770.50
2019-06-20T02:51:30.904Z,770.52
2019-06-20T02:52:30.921Z,770.53
2019-06-20T02:53:30.929Z,770.55
2019-06-20T02:54:30.855Z,770.53
2019-06-20T02:55:30.890Z,770.51
2019-06-20T02:56:30.829Z,770.52
2019-06-20T02:57:30.824Z,770.49
2019-06-20T02:58:30.859Z,770.49
2019-06-20T02:59:30.811Z,770.47
2019-06-20T03:00:30.775Z,770.47
2019-06-20T03:01:30.804Z,770.47
2019-06-20T03:02:30.770Z,770.45
2019-06-20T03:04:39.983Z,770.50
2019-06-20T03:05:40.940Z,770.40
2019-06-20T03:06:40.910Z,770.37
2019-06-20T03:07:40.900Z,770.39
2019-06-20T03:08:40.937Z,770.36
2019-06-20T03:09:40.901Z,770.35
2019-06-20T03:10:40.876Z,770.36
2019-06-20T03:11:40.868Z,770.34
2019-06-20T03:12:40.884Z,770.32
2019-06-20T03:13:41.694Z,770.30
2019-06-20T03:14:45.566Z,770.30
2019-06-20T03:15:40.811Z,770.27
2019-06-20T03:16:40.869Z,770.26
2019-06-20T03:17:41.223Z,770.26
2019-06-20T03:18:41.696Z,770.27
2019-06-20T03:19:40.844Z,770.26
2019-06-20T03:20:40.798Z,770.26
2019-06-20T03:21:40.749Z,770.30
2019-06-20T03:22:40.857Z,770.27
2019-06-20T03:23:40.728Z,770.29
2019-06-20T03:24:40.718Z,770.32
2019-06-20T03:25:40.695Z,770.34
2019-06-20T03:26:40.694Z,770.38
2019-06-20T03:27:40.700Z,770.34
2019-06-20T03:28:40.669Z,770.33
2019-06-20T03:29:40.651Z,770.36
2019-06-20T03:30:40.646Z,770.39
2019-06-20T03:31:40.638Z,770.37
2019-06-20T03:32:40.648Z,770.35
2019-06-20T03:33:40.616Z,770.36
2019-06-20T03:34:40.608Z,770.37
2019-06-20T03:35:40.588Z,770.38
2019-06-20T03:36:40.572Z,770.40
2019-06-20T03:37:40.571Z,770.38
2019-06-20T03:38:40.553Z,770.38
2019-06-20T03:39:40.553Z,770.36
2019-06-20T03:40:40.537Z,770.34
2019-06-20T03:41:40.525Z,770.38
2019-06-20T03:42:40.534Z,770.38
2019-06-20T03:43:40.501Z,770.37
2019-06-20T03:44:40.497Z,770.38
2019-06-20T03:45:40.475Z,770.35
2019-06-20T03:46:40.469Z,770.33
2019-06-20T03:47:40.474Z,770.32
2019-06-20T03:48:40.447Z,770.31
2019-06-20T03:49:40.430Z,770.32
2019-06-20T03:50:40.410Z,770.31
2019-06-20T03:51:40.414Z,770.31
2019-06-20T03:52:40.419Z,770.29
2019-06-20T03:53:40.411Z,770.30
2019-06-20T03:54:40.388Z,770.31
2019-06-20T03:55:40.363Z,770.26
2019-06-20T03:56:40.355Z,770.25
2019-06-20T03:57:40.347Z,770.24
2019-06-20T03:58:40.332Z,770.22
2019-06-20T03:59:40.330Z,770.17
2019-06-20T04:00:40.298Z,770.19
2019-06-20T04:01:40.290Z,770.16
2019-06-20T04:02:40.304Z,770.12
2019-06-20T04:03:40.304Z,770.18
2019-06-20T04:04:40.258Z,770.16
2019-06-20T04:05:40.248Z,770.09
2019-06-20T04:06:40.257Z,770.10
2019-06-20T04:07:40.241Z,770.04
2019-06-20T04:08:40.222Z,769.99
2019-06-20T04:09:40.206Z,769.92
2019-06-20T04:10:40.191Z,769.86
2019-06-20T04:11:40.178Z,769.90
2019-06-20T04:12:40.289Z,769.91
2019-06-20T04:13:40.163Z,769.86
2019-06-20T04:14:40.154Z,769.85
2019-06-20T04:15:40.141Z,769.86
2019-06-20T04:16:40.136Z,769.84
2019-06-20T04:17:40.131Z,769.82
2019-06-20T04:18:40.122Z,769.79
2019-06-20T04:19:40.093Z,769.81
2019-06-20T04:20:40.080Z,769.86
2019-06-20T04:21:40.091Z,769.87
2019-06-20T04:22:40.062Z,769.84
2019-06-20T04:23:40.056Z,769.81
2019-06-20T04:24:40.055Z,769.78
2019-06-20T04:25:40.034Z,769.80
2019-06-20T04:26:40.008Z,769.79
2019-06-20T04:27:40.014Z,769.79
2019-06-20T04:28:40.013Z,769.74
2019-06-20T04:29:39.979Z,769.71
2019-06-20T04:30:39.963Z,769.73
2019-06-20T04:31:39.966Z,769.87
2019-06-20T04:32:39.943Z,769.84
2019-06-20T04:33:39.968Z,769.86
2019-06-20T04:34:39.934Z,769.93
2019-06-20T04:35:39.917Z,769.97
2019-06-20T04:36:39.897Z,769.95
2019-06-20T04:37:39.919Z,769.94
2019-06-20T04:38:39.901Z,769.96
2019-06-20T04:39:39.940Z,770.00
2019-06-20T04:40:39.864Z,769.97
2019-06-20T04:41:39.856Z,769.95
2019-06-20T04:42:39.850Z,769.95
2019-06-20T04:43:39.842Z,769.94
2019-06-20T04:44:39.825Z,769.91
2019-06-20T04:45:39.825Z,769.88
2019-06-20T04:46:39.794Z,769.88
2019-06-20T04:47:39.792Z,769.83
2019-06-20T04:48:39.798Z,769.88
2019-06-20T04:49:39.767Z,769.88
2019-06-20T04:50:39.754Z,769.90
2019-06-20T04:51:39.893Z,769.89
2019-06-20T04:52:39.725Z,769.90
2019-06-20T04:53:39.748Z,769.91
2019-06-20T04:54:39.707Z,769.91
2019-06-20T04:55:39.741Z,769.92
2019-06-20T04:56:39.681Z,769.96
2019-06-20T04:57:39.673Z,769.93
2019-06-20T04:58:39.683Z,769.94
2019-06-20T04:59:39.650Z,769.93
2019-06-20T05:00:39.634Z,770.00
2019-06-20T05:01:39.663Z,769.95
2019-06-20T05:02:39.836Z,769.95
2019-06-20T05:03:39.632Z,769.91
2019-06-20T05:05:48.818Z,769.98
2019-06-20T05:06:49.802Z,769.87
2019-06-20T05:07:49.835Z,769.82
2019-06-20T05:08:49.779Z,769.77
2019-06-20T05:09:49.737Z,769.81
2019-06-20T05:10:50.524Z,769.83
2019-06-20T05:11:49.733Z,769.85
2019-06-20T05:12:49.717Z,769.87
2019-06-20T05:13:49.732Z,769.85
2019-06-20T05:14:49.689Z,769.93
2019-06-20T05:15:53.121Z,769.95
2019-06-20T05:16:49.664Z,769.97
2019-06-20T05:17:49.657Z,769.97
2019-06-20T05:18:49.776Z,769.93
2019-06-20T05:19:49.642Z,769.92
2019-06-20T05:20:49.620Z,769.92
2019-06-20T05:21:49.617Z,769.93
2019-06-20T05:22:49.625Z,769.97
2019-06-20T05:23:49.604Z,770.00
2019-06-20T05:24:49.593Z,770.00
2019-06-20T05:25:49.567Z,769.99
2019-06-20T05:26:49.554Z,769.99
2019-06-20T05:27:49.553Z,770.02
2019-06-20T05:28:49.581Z,770.04
2019-06-20T05:29:49.533Z,770.06
2019-06-20T05:30:49.530Z,770.02
2019-06-20T05:31:49.512Z,770.00
2019-06-20T05:32:49.498Z,769.97
2019-06-20T05:33:49.478Z,769.99
2019-06-20T05:34:49.482Z,770.00
2019-06-20T05:35:49.464Z,770.04
2019-06-20T05:36:49.454Z,770.03
2019-06-20T05:37:49.436Z,770.03
2019-06-20T05:38:49.438Z,770.01
2019-06-20T05:39:49.441Z,770.00
2019-06-20T05:40:49.430Z,769.98
2019-06-20T05:41:49.396Z,770.01
2019-06-20T05:42:49.380Z,770.07
2019-06-20T05:43:49.365Z,770.01
2019-06-20T05:44:49.388Z,769.94
2019-06-20T05:45:49.349Z,769.91
2019-06-20T05:46:49.325Z,769.92
2019-06-20T05:47:49.876Z,770.00
2019-06-20T05:48:49.324Z,769.99
2019-06-20T05:49:49.318Z,769.98
2019-06-20T05:50:49.297Z,770.01
2019-06-20T05:51:49.281Z,770.00
2019-06-20T05:52:49.271Z,769.94
2019-06-20T05:53:49.261Z,769.94
2019-06-20T05:54:49.259Z,769.96
2019-06-20T05:55:49.229Z,769.95
2019-06-20T05:56:49.220Z,769.95
2019-06-20T05:57:49.225Z,769.94
2019-06-20T05:58:49.205Z,769.94
2019-06-20T05:59:49.208Z,769.98
2019-06-20T06:00:49.219Z,769.97
2019-06-20T06:01:49.171Z,769.94
2019-06-20T06:02:49.151Z,769.88
2019-06-20T06:03:49.136Z,769.85
2019-06-20T06:04:49.143Z,769.84
2019-06-20T06:05:49.128Z,769.86
2019-06-20T06:06:49.108Z,769.93
2019-06-20T06:07:49.173Z,769.85
2019-06-20T06:08:49.122Z,769.72
2019-06-20T06:09:49.133Z,769.65
2019-06-20T06:10:49.065Z,769.54
2019-06-20T06:11:49.073Z,769.47
2019-06-20T06:12:49.040Z,769.40
2019-06-20T06:13:49.043Z,769.27
2019-06-20T06:14:49.159Z,769.25
2019-06-20T06:15:49.011Z,769.19
2019-06-20T06:16:49.010Z,769.07
2019-06-20T06:17:48.997Z,768.99
2019-06-20T06:18:48.982Z,769.00
2019-06-20T06:19:48.984Z,768.95
2019-06-20T06:20:48.960Z,769.08
2019-06-20T06:21:48.942Z,769.16
2019-06-20T06:22:48.925Z,769.11
2019-06-20T06:23:48.938Z,769.09
2019-06-20T06:24:48.927Z,769.21
2019-06-20T06:25:48.915Z,769.32
2019-06-20T06:26:48.884Z,769.28
2019-06-20T06:27:48.875Z,769.26
2019-06-20T06:28:48.911Z,769.20
2019-06-20T06:29:48.879Z,769.15
2019-06-20T06:30:48.841Z,769.13
2019-06-20T06:31:48.845Z,769.06
2019-06-20T06:32:48.836Z,769.01
2019-06-20T06:33:48.815Z,768.80
2019-06-20T06:34:48.822Z,768.83
2019-06-20T06:35:48.826Z,768.88
2019-06-20T06:36:48.813Z,768.77
2019-06-20T06:37:48.772Z,768.73
2019-06-20T06:38:48.772Z,768.63
2019-06-20T06:39:48.757Z,768.79
2019-06-20T06:40:48.750Z,768.72
2019-06-20T06:41:48.773Z,768.72
2019-06-20T06:42:48.716Z,768.71
2019-06-20T06:43:48.741Z,768.71
2019-06-20T06:44:48.688Z,768.61
2019-06-20T06:45:48.699Z,768.52
2019-06-20T06:46:55.373Z,768.50
2019-06-20T06:47:48.653Z,768.68
2019-06-20T06:48:48.646Z,768.75
2019-06-20T06:49:48.685Z,768.60
2019-06-20T06:50:48.655Z,768.40
2019-06-20T06:51:48.607Z,768.18
2019-06-20T06:52:48.609Z,768.10
2019-06-20T06:53:48.589Z,768.36
2019-06-20T06:54:48.610Z,768.32
2019-06-20T06:55:48.579Z,768.02
2019-06-20T06:56:48.575Z,767.84
2019-06-20T06:57:48.555Z,767.81
2019-06-20T06:58:48.539Z,767.73
2019-06-20T06:59:48.536Z,767.88
2019-06-20T07:00:48.553Z,768.03
2019-06-20T07:01:48.508Z,768.11
2019-06-20T07:02:49.064Z,768.07
2019-06-20T07:03:48.483Z,768.09
2019-06-20T07:04:48.469Z,768.37
2019-06-20T07:06:57.666Z,768.33
2019-06-20T07:07:58.643Z,768.11
2019-06-20T07:08:58.639Z,768.15
2019-06-20T07:09:58.618Z,768.10
2019-06-20T07:10:58.619Z,767.98
2019-06-20T07:11:58.593Z,767.93
2019-06-20T07:12:58.593Z,767.88
2019-06-20T07:13:58.630Z,767.73
2019-06-20T07:14:58.573Z,767.45
2019-06-20T07:15:58.565Z,767.30
2019-06-20T07:17:00.569Z,767.18
2019-06-20T07:17:58.530Z,767.02
2019-06-20T07:18:58.514Z,766.82
2019-06-20T07:19:58.514Z,766.72
2019-06-20T07:20:58.963Z,766.72
2019-06-20T07:21:58.484Z,766.78
2019-06-20T07:22:58.473Z,766.84
2019-06-20T07:23:58.464Z,766.77
2019-06-20T07:24:58.440Z,766.76
2019-06-20T07:25:58.453Z,767.04
2019-06-20T07:26:58.447Z,767.42
2019-06-20T07:27:58.440Z,767.45
2019-06-20T07:28:58.396Z,767.45
2019-06-20T07:29:58.399Z,767.45
2019-06-20T07:30:58.390Z,767.46
2019-06-20T07:31:58.399Z,767.56
2019-06-20T07:32:58.365Z,767.60
2019-06-20T07:33:58.359Z,767.53
2019-06-20T07:34:58.348Z,767.42
2019-06-20T07:35:58.335Z,767.28
2019-06-20T07:36:58.351Z,767.23
2019-06-20T07:37:58.303Z,767.01
2019-06-20T07:38:58.298Z,767.03
2019-06-20T07:39:58.290Z,766.87
2019-06-20T07:40:58.299Z,767.22
2019-06-20T07:41:58.285Z,767.51
2019-06-20T07:42:58.266Z,767.43
2019-06-20T07:43:58.233Z,767.40
2019-06-20T07:44:58.241Z,767.23
2019-06-20T07:46:02.571Z,767.20
2019-06-20T07:46:58.223Z,767.22
2019-06-20T07:47:58.204Z,767.51
2019-06-20T07:48:58.181Z,767.54
2019-06-20T07:49:58.172Z,767.54
2019-06-20T07:50:58.160Z,767.40
2019-06-20T07:51:58.183Z,766.95
2019-06-20T07:53:02.526Z,766.47
2019-06-20T07:53:58.136Z,766.03
2019-06-20T07:54:58.133Z,766.00
2019-06-20T07:55:58.108Z,766.06
2019-06-20T07:56:58.124Z,766.30
2019-06-20T07:57:58.075Z,766.56
2019-06-20T07:58:58.061Z,766.62
2019-06-20T07:59:58.064Z,766.75
2019-06-20T08:00:58.050Z,766.45
2019-06-20T08:01:58.058Z,766.53
2019-06-20T08:02:58.052Z,766.68
2019-06-20T08:03:58.031Z,767.12
2019-06-20T08:04:57.999Z,767.32
2019-06-20T08:05:57.996Z,767.53
2019-06-20T08:06:57.991Z,767.57
2019-06-20T08:07:58.042Z,767.67
2019-06-20T08:08:57.954Z,767.57
2019-06-20T08:09:57.959Z,767.60
2019-06-20T08:10:57.939Z,767.45
2019-06-20T08:11:57.939Z,767.31
2019-06-20T08:12:57.928Z,767.33
2019-06-20T08:13:57.916Z,767.20
2019-06-20T08:15:13.776Z,767.07
2019-06-20T08:15:57.957Z,767.15
2019-06-20T08:16:57.870Z,767.32
2019-06-20T08:17:57.879Z,767.39
2019-06-20T08:18:57.886Z,767.29
2019-06-20T08:19:57.850Z,767.21
2019-06-20T08:20:57.826Z,767.22
2019-06-20T08:21:57.831Z,767.00
2019-06-20T08:22:57.842Z,766.80
2019-06-20T08:23:57.811Z,766.68
2019-06-20T08:24:58.955Z,766.92
2019-06-20T08:25:59.191Z,766.67
2019-06-20T08:26:58.724Z,766.60
2019-06-20T08:27:59.459Z,766.88
2019-06-20T08:29:10.160Z,766.96
2019-06-20T08:29:58.998Z,766.92
2019-06-20T08:30:58.880Z,767.07
2019-06-20T08:31:59.395Z,767.08
2019-06-20T08:32:59.643Z,767.05
2019-06-20T08:33:58.890Z,766.95
2019-06-20T08:34:59.063Z,766.74
2019-06-20T08:35:58.931Z,766.61
2019-06-20T08:36:58.932Z,766.56
2019-06-20T08:37:59.193Z,766.64
2019-06-20T08:38:58.745Z,766.57
2019-06-20T08:39:58.420Z,766.77
2019-06-20T08:40:58.362Z,767.25
2019-06-20T08:41:59.190Z,767.48
2019-06-20T08:42:58.858Z,767.58
2019-06-20T08:43:58.394Z,767.56
2019-06-20T08:44:57.909Z,767.65
2019-06-20T08:45:57.873Z,767.52
2019-06-20T08:46:59.217Z,767.43
2019-06-20T08:47:58.304Z,767.34
2019-06-20T08:48:58.256Z,767.40
2019-06-20T08:49:58.180Z,767.50
2019-06-20T08:50:58.522Z,767.59
2019-06-20T08:51:57.488Z,767.49
2019-06-20T08:52:58.015Z,767.57
2019-06-20T08:53:58.199Z,767.70
2019-06-20T08:54:58.244Z,767.94
2019-06-20T08:55:59.266Z,768.05
2019-06-20T08:56:58.982Z,768.20
2019-06-20T08:57:58.253Z,768.30
2019-06-20T08:58:58.532Z,768.24
2019-06-20T08:59:58.788Z,768.27
2019-06-20T09:00:59.666Z,768.26
2019-06-20T09:01:59.965Z,768.23
2019-06-20T09:02:58.615Z,768.21
2019-06-20T09:03:58.292Z,768.31
2019-06-20T09:04:58.039Z,768.39
2019-06-20T09:05:58.256Z,768.56
2019-06-20T09:08:06.561Z,768.74
2019-06-20T09:09:07.507Z,768.68
2019-06-20T09:10:07.476Z,768.63
2019-06-20T09:11:07.473Z,768.53
2019-06-20T09:12:07.457Z,768.42
2019-06-20T09:13:07.453Z,768.33
2019-06-20T09:14:07.458Z,768.27
2019-06-20T09:15:07.434Z,768.18
2019-06-20T09:16:07.420Z,768.28
2019-06-20T09:17:07.422Z,768.29
2019-06-20T09:18:07.402Z,768.33
2019-06-20T09:19:07.416Z,768.14
2019-06-20T09:20:07.387Z,767.79
2019-06-20T09:21:07.370Z,767.64
2019-06-20T09:22:07.358Z,767.50
2019-06-20T09:23:07.342Z,767.38
2019-06-20T09:24:07.356Z,767.12
2019-06-20T09:25:07.318Z,766.93
2019-06-20T09:26:07.322Z,766.76
2019-06-20T09:27:07.304Z,766.63
2019-06-20T09:28:07.276Z,766.53
2019-06-20T09:29:07.288Z,766.47
2019-06-20T09:30:07.254Z,766.25
2019-06-20T09:31:07.451Z,766.00
2019-06-20T09:32:07.249Z,765.76
2019-06-20T09:33:07.232Z,765.90
2019-06-20T09:34:07.269Z,766.33
2019-06-20T09:35:07.216Z,766.41
2019-06-20T09:36:07.197Z,766.25
2019-06-20T09:37:07.189Z,766.09
2019-06-20T09:38:07.165Z,766.11
2019-06-20T09:39:07.179Z,766.01
2019-06-20T09:40:07.150Z,766.02
2019-06-20T09:41:07.146Z,765.93
2019-06-20T09:42:07.133Z,765.90
2019-06-20T09:43:07.119Z,765.84
2019-06-20T09:44:07.133Z,765.80
2019-06-20T09:45:07.117Z,765.66
2019-06-20T09:46:07.100Z,765.69
2019-06-20T09:47:07.106Z,765.69
2019-06-20T09:48:07.094Z,765.99
2019-06-20T09:49:07.083Z,766.26
2019-06-20T09:50:07.053Z,766.44
2019-06-20T09:51:07.042Z,766.52
2019-06-20T09:52:07.032Z,766.50
2019-06-20T09:53:07.016Z,766.45
2019-06-20T09:54:07.007Z,766.32
2019-06-20T09:55:07.011Z,766.20
2019-06-20T09:56:06.983Z,766.30
2019-06-20T09:57:06.969Z,766.21
2019-06-20T09:58:06.989Z,766.12
2019-06-20T09:59:06.957Z,765.76
2019-06-20T10:00:10.397Z,765.48
2019-06-20T10:01:06.929Z,765.68
2019-06-20T10:02:06.906Z,765.90
2019-06-20T10:03:06.908Z,765.65
2019-06-20T10:04:06.922Z,765.59
2019-06-20T10:05:06.896Z,765.65
2019-06-20T10:06:14.053Z,765.68
2019-06-20T10:07:06.852Z,765.55
2019-06-20T10:08:06.855Z,765.38
2019-06-20T10:09:06.848Z,765.51
2019-06-20T10:10:06.858Z,765.34
2019-06-20T10:11:06.810Z,765.13
2019-06-20T10:12:06.798Z,765.31
2019-06-20T10:13:06.799Z,765.43
2019-06-20T10:14:06.797Z,765.11
2019-06-20T10:15:06.789Z,764.82
2019-06-20T10:16:06.758Z,764.74
2019-06-20T10:17:06.750Z,764.85
2019-06-20T10:18:06.735Z,764.78
2019-06-20T10:19:06.746Z,764.87
2019-06-20T10:20:06.739Z,765.09
2019-06-20T10:21:06.712Z,765.03
2019-06-20T10:22:06.697Z,764.72
2019-06-20T10:23:06.714Z,764.48
2019-06-20T10:24:06.678Z,764.65
2019-06-20T10:25:06.668Z,764.61
2019-06-20T10:26:06.644Z,764.76
2019-06-20T10:27:06.642Z,764.78
2019-06-20T10:28:06.639Z,764.74
2019-06-20T10:29:06.617Z,764.59
2019-06-20T10:30:14.445Z,764.85
2019-06-20T10:31:06.597Z,765.02
2019-06-20T10:32:06.593Z,765.39
2019-06-20T10:33:06.576Z,765.60
2019-06-20T10:34:06.559Z,765.93
2019-06-20T10:35:06.568Z,765.69
2019-06-20T10:36:06.557Z,765.81
2019-06-20T10:37:06.544Z,765.75
2019-06-20T10:38:06.531Z,765.88
2019-06-20T10:39:06.513Z,765.60
2019-06-20T10:40:06.537Z,765.68
2019-06-20T10:41:06.493Z,765.74
2019-06-20T10:42:06.480Z,765.90
2019-06-20T10:43:06.460Z,765.86
2019-06-20T10:44:06.455Z,765.93
2019-06-20T10:45:06.460Z,765.94
2019-06-20T10:46:06.454Z,765.80
2019-06-20T10:47:06.432Z,765.91
2019-06-20T10:48:06.406Z,766.01
2019-06-20T10:49:06.387Z,766.17
2019-06-20T10:50:06.418Z,766.16
2019-06-20T10:51:06.398Z,766.06
2019-06-20T10:52:06.378Z,766.18
2019-06-20T10:53:06.343Z,766.09
2019-06-20T10:54:06.344Z,766.02
2019-06-20T10:55:06.329Z,766.01
2019-06-20T10:56:06.342Z,766.10
2019-06-20T10:57:06.304Z,766.22
2019-06-20T10:58:06.333Z,766.19
2019-06-20T10:59:06.286Z,766.25
2019-06-20T11:00:06.347Z,766.19
2019-06-20T11:01:06.285Z,766.12
2019-06-20T11:02:07.266Z,766.05
2019-06-20T11:03:06.249Z,765.84
2019-06-20T11:04:06.237Z,765.89
2019-06-20T11:05:06.217Z,766.08
2019-06-20T11:06:06.228Z,766.03
2019-06-20T11:07:06.229Z,765.86
2019-06-20T11:09:15.387Z,766.00
2019-06-20T11:10:16.365Z,765.89
2019-06-20T11:11:16.378Z,765.67
2019-06-20T11:12:16.343Z,765.68
2019-06-20T11:13:16.333Z,765.60
2019-06-20T11:14:16.318Z,765.51
2019-06-20T11:15:16.321Z,765.17
2019-06-20T11:16:16.324Z,765.30
2019-06-20T11:17:16.300Z,765.03
2019-06-20T11:18:16.280Z,764.91
2019-06-20T11:19:16.269Z,764.90
2019-06-20T11:20:16.252Z,765.00
2019-06-20T11:21:16.271Z,764.77
2019-06-20T11:22:16.232Z,764.58
2019-06-20T11:23:16.232Z,764.40
2019-06-20T11:24:16.220Z,764.27
2019-06-20T11:25:18.966Z,764.06
2019-06-20T11:26:16.266Z,763.71
2019-06-20T11:27:16.183Z,763.84
2019-06-20T11:28:16.177Z,763.43
2019-06-20T11:29:16.218Z,762.98
2019-06-20T11:30:16.157Z,762.55
2019-06-20T11:31:16.232Z,762.27
2019-06-20T11:32:16.155Z,761.77
2019-06-20T11:33:16.134Z,761.61
2019-06-20T11:34:16.107Z,761.80
2019-06-20T11:35:16.096Z,761.79
2019-06-20T11:36:16.093Z,761.39
2019-06-20T11:37:16.092Z,761.87
2019-06-20T11:38:16.096Z,761.97
2019-06-20T11:39:16.061Z,761.91
2019-06-20T11:40:16.046Z,761.72
2019-06-20T11:41:16.032Z,761.69
2019-06-20T11:42:16.037Z,761.62
2019-06-20T11:43:16.010Z,761.62
2019-06-20T11:44:16.010Z,761.34
2019-06-20T11:45:15.995Z,761.25
2019-06-20T11:46:15.991Z,761.30
2019-06-20T11:47:16.004Z,761.23
2019-06-20T11:48:15.959Z,761.19
2019-06-20T11:49:15.978Z,761.91
2019-06-20T11:50:15.946Z,762.05
2019-06-20T11:51:15.927Z,762.02
2019-06-20T11:52:15.933Z,762.81
2019-06-20T11:53:15.925Z,763.20
2019-06-20T11:54:15.902Z,763.35
2019-06-20T11:55:15.887Z,763.93
2019-06-20T11:56:15.878Z,763.77
2019-06-20T11:57:15.885Z,763.97
2019-06-20T11:58:15.849Z,763.96
2019-06-20T11:59:15.874Z,763.99
2019-06-20T12:00:15.837Z,764.06
2019-06-20T12:01:15.820Z,763.97
2019-06-20T12:02:15.828Z,763.84
2019-06-20T12:03:15.805Z,763.91
2019-06-20T12:04:15.818Z,763.97
2019-06-20T12:05:15.776Z,763.86
2019-06-20T12:06:15.774Z,763.70
2019-06-20T12:07:15.784Z,763.84
2019-06-20T12:08:15.746Z,763.95
2019-06-20T12:09:15.745Z,764.22
2019-06-20T12:10:15.727Z,764.14
2019-06-20T12:11:15.720Z,763.98
2019-06-20T12:12:15.721Z,764.02
2019-06-20T12:13:15.700Z,763.87
2019-06-20T12:14:15.681Z,763.48
2019-06-20T12:15:15.677Z,763.11
2019-06-20T12:16:15.680Z,763.21
2019-06-20T12:17:15.710Z,763.17
2019-06-20T12:18:15.634Z,763.04
2019-06-20T12:19:15.631Z,762.97
2019-06-20T12:20:15.662Z,762.95
2019-06-20T12:21:15.667Z,763.03
2019-06-20T12:22:15.641Z,763.04
2019-06-20T12:23:15.591Z,762.85
2019-06-20T12:24:16.147Z,762.86
2019-06-20T12:25:15.572Z,762.84
2019-06-20T12:26:15.552Z,763.32
2019-06-20T12:27:15.561Z,763.60
2019-06-20T12:28:15.558Z,763.53
2019-06-20T12:29:15.534Z,763.41
2019-06-20T12:30:15.527Z,763.10
2019-06-20T12:31:19.553Z,763.24
2019-06-20T12:32:15.496Z,763.66
2019-06-20T12:33:15.507Z,763.83
2019-06-20T12:34:15.470Z,763.73
2019-06-20T12:35:15.469Z,763.75